sensor_id;sensor_type;location;lat;lon;timestamp;temperature;humidity
45207;DHT22;30950;53.086;21.576;2023-06-14T00:01:05;13.40;99.90
45207;DHT22;30950;53.086;21.576;2023-06-14T00:03:43;13.40;99.90
45207;DHT22;30950;53.086;21.576;2023-06-14T00:06:11;13.30;99.90
45207;DHT22;30950;53.086;21.576;2023-06-14T00:08:38;13.30;99.90
45207;DHT22;30950;53.086;21.576;2023-06-14T00:11:07;13.20;99.90
45207;DHT22;30950;53.086;21.576;2023-06-14T00:13:35;13.20;99.90
45207;DHT22;30950;53.086;21.576;2023-06-14T00:16:02;13.30;99.90
45207;DHT22;30950;53.086;21.576;2023-06-14T00:18:31;13.20;99.90
45207;DHT22;30950;53.086;21.576;2023-06-14T00:20:59;13.20;99.90
45207;DHT22;30950;53.086;21.576;2023-06-14T00:23:26;13.30;99.90
45207;DHT22;30950;53.086;21.576;2023-06-14T00:25:54;13.30;99.90
45207;DHT22;30950;53.086;21.576;2023-06-14T00:28:21;13.30;99.90
45207;DHT22;30950;53.086;21.576;2023-06-14T00:30:49;13.30;99.90
45207;DHT22;30950;53.086;21.576;2023-06-14T00:33:16;13.30;99.90
45207;DHT22;30950;53.086;21.576;2023-06-14T00:35:43;13.30;99.90
45207;DHT22;30950;53.086;21.576;2023-06-14T00:38:11;13.40;99.90
45207;DHT22;30950;53.086;21.576;2023-06-14T00:40:40;13.40;99.90
45207;DHT22;30950;53.086;21.576;2023-06-14T00:43:07;13.40;99.90
45207;DHT22;30950;53.086;21.576;2023-06-14T00:45:36;13.50;99.90
45207;DHT22;30950;53.086;21.576;2023-06-14T00:48:04;13.50;99.90
45207;DHT22;30950;53.086;21.576;2023-06-14T00:50:34;13.50;99.90
45207;DHT22;30950;53.086;21.576;2023-06-14T00:53:01;13.50;99.90
45207;DHT22;30950;53.086;21.576;2023-06-14T00:55:29;13.60;99.90
45207;DHT22;30950;53.086;21.576;2023-06-14T00:57:57;13.60;99.90
45207;DHT22;30950;53.086;21.576;2023-06-14T01:00:25;13.60;99.90
45207;DHT22;30950;53.086;21.576;2023-06-14T01:02:54;13.60;99.90
45207;DHT22;30950;53.086;21.576;2023-06-14T01:05:23;13.70;99.90
45207;DHT22;30950;53.086;21.576;2023-06-14T01:13:31;13.60;99.90
45207;DHT22;30950;53.086;21.576;2023-06-14T01:16:00;13.60;99.90
45207;DHT22;30950;53.086;21.576;2023-06-14T01:18:30;13.60;99.90
45207;DHT22;30950;53.086;21.576;2023-06-14T01:20:58;13.70;99.90
45207;DHT22;30950;53.086;21.576;2023-06-14T01:23:25;13.60;99.90
45207;DHT22;30950;53.086;21.576;2023-06-14T01:26:00;13.70;99.90
45207;DHT22;30950;53.086;21.576;2023-06-14T01:28:31;13.70;99.90
45207;DHT22;30950;53.086;21.576;2023-06-14T01:31:02;13.70;99.90
45207;DHT22;30950;53.086;21.576;2023-06-14T01:33:33;13.80;99.90
45207;DHT22;30950;53.086;21.576;2023-06-14T01:36:03;13.80;99.90
45207;DHT22;30950;53.086;21.576;2023-06-14T01:38:32;13.80;99.90
45207;DHT22;30950;53.086;21.576;2023-06-14T01:41:00;13.80;99.90
45207;DHT22;30950;53.086;21.576;2023-06-14T01:43:30;13.80;99.90
45207;DHT22;30950;53.086;21.576;2023-06-14T01:46:00;13.80;99.90
45207;DHT22;30950;53.086;21.576;2023-06-14T01:48:27;13.80;99.90
45207;DHT22;30950;53.086;21.576;2023-06-14T01:50:55;13.80;99.90
45207;DHT22;30950;53.086;21.576;2023-06-14T01:53:22;13.80;99.90
45207;DHT22;30950;53.086;21.576;2023-06-14T01:55:50;13.80;99.90
45207;DHT22;30950;53.086;21.576;2023-06-14T01:58:17;13.80;99.90
45207;DHT22;30950;53.086;21.576;2023-06-14T02:00:45;13.80;99.90
45207;DHT22;30950;53.086;21.576;2023-06-14T02:03:12;13.80;99.90
45207;DHT22;30950;53.086;21.576;2023-06-14T02:05:40;13.80;99.90
45207;DHT22;30950;53.086;21.576;2023-06-14T02:08:08;13.90;99.90
45207;DHT22;30950;53.086;21.576;2023-06-14T02:10:37;13.90;99.90
45207;DHT22;30950;53.086;21.576;2023-06-14T02:13:04;13.90;99.90
45207;DHT22;30950;53.086;21.576;2023-06-14T02:15:32;13.90;99.90
45207;DHT22;30950;53.086;21.576;2023-06-14T02:18:04;13.90;99.90
45207;DHT22;30950;53.086;21.576;2023-06-14T02:20:33;13.90;99.90
45207;DHT22;30950;53.086;21.576;2023-06-14T02:23:01;13.90;99.90
45207;DHT22;30950;53.086;21.576;2023-06-14T02:25:31;13.90;99.90
45207;DHT22;30950;53.086;21.576;2023-06-14T02:27:58;13.90;99.90
45207;DHT22;30950;53.086;21.576;2023-06-14T02:30:26;13.90;99.90
45207;DHT22;30950;53.086;21.576;2023-06-14T02:32:56;13.90;99.90
45207;DHT22;30950;53.086;21.576;2023-06-14T02:35:24;13.90;99.90
45207;DHT22;30950;53.086;21.576;2023-06-14T02:37:55;13.90;99.90
45207;DHT22;30950;53.086;21.576;2023-06-14T02:40:23;14.00;99.90
45207;DHT22;30950;53.086;21.576;2023-06-14T02:42:53;14.00;99.90
45207;DHT22;30950;53.086;21.576;2023-06-14T02:45:21;14.00;99.90
45207;DHT22;30950;53.086;21.576;2023-06-14T02:47:48;14.00;99.90
45207;DHT22;30950;53.086;21.576;2023-06-14T02:50:16;14.00;99.90
45207;DHT22;30950;53.086;21.576;2023-06-14T02:52:45;14.00;99.90
45207;DHT22;30950;53.086;21.576;2023-06-14T02:55:13;14.00;99.90
45207;DHT22;30950;53.086;21.576;2023-06-14T02:57:40;14.10;99.90
45207;DHT22;30950;53.086;21.576;2023-06-14T03:00:10;14.10;99.90
45207;DHT22;30950;53.086;21.576;2023-06-14T03:02:42;14.10;99.90
45207;DHT22;30950;53.086;21.576;2023-06-14T03:05:11;14.10;99.90
45207;DHT22;30950;53.086;21.576;2023-06-14T03:07:40;14.10;99.90
45207;DHT22;30950;53.086;21.576;2023-06-14T03:10:09;14.10;99.90
45207;DHT22;30950;53.086;21.576;2023-06-14T03:12:41;14.10;99.90
45207;DHT22;30950;53.086;21.576;2023-06-14T03:15:10;14.10;99.90
45207;DHT22;30950;53.086;21.576;2023-06-14T03:17:44;14.10;99.90
45207;DHT22;30950;53.086;21.576;2023-06-14T03:20:15;14.20;99.90
45207;DHT22;30950;53.086;21.576;2023-06-14T03:22:43;14.20;99.90
45207;DHT22;30950;53.086;21.576;2023-06-14T03:25:14;14.20;99.90
45207;DHT22;30950;53.086;21.576;2023-06-14T03:27:44;14.20;99.90
45207;DHT22;30950;53.086;21.576;2023-06-14T03:30:12;14.30;99.90
45207;DHT22;30950;53.086;21.576;2023-06-14T03:32:41;14.20;99.90
45207;DHT22;30950;53.086;21.576;2023-06-14T03:35:09;14.30;99.90
45207;DHT22;30950;53.086;21.576;2023-06-14T03:37:45;14.30;99.90
45207;DHT22;30950;53.086;21.576;2023-06-14T03:40:17;14.30;99.90
45207;DHT22;30950;53.086;21.576;2023-06-14T03:42:48;14.30;99.90
45207;DHT22;30950;53.086;21.576;2023-06-14T03:45:16;14.30;99.90
45207;DHT22;30950;53.086;21.576;2023-06-14T03:47:43;14.40;99.90
45207;DHT22;30950;53.086;21.576;2023-06-14T03:50:11;14.30;99.90
45207;DHT22;30950;53.086;21.576;2023-06-14T03:52:40;14.30;99.90
45207;DHT22;30950;53.086;21.576;2023-06-14T03:55:11;14.40;99.90
45207;DHT22;30950;53.086;21.576;2023-06-14T03:57:43;14.30;99.90
45207;DHT22;30950;53.086;21.576;2023-06-14T04:00:14;14.40;99.90
45207;DHT22;30950;53.086;21.576;2023-06-14T04:02:43;14.30;99.90
45207;DHT22;30950;53.086;21.576;2023-06-14T04:05:12;14.40;99.90
45207;DHT22;30950;53.086;21.576;2023-06-14T04:07:48;14.40;99.90
45207;DHT22;30950;53.086;21.576;2023-06-14T04:10:16;14.40;99.90
45207;DHT22;30950;53.086;21.576;2023-06-14T04:12:44;14.40;99.90
45207;DHT22;30950;53.086;21.576;2023-06-14T04:15:12;14.40;99.90
45207;DHT22;30950;53.086;21.576;2023-06-14T04:17:51;14.40;99.90
45207;DHT22;30950;53.086;21.576;2023-06-14T04:20:22;14.40;99.90
45207;DHT22;30950;53.086;21.576;2023-06-14T04:22:51;14.40;99.90
45207;DHT22;30950;53.086;21.576;2023-06-14T04:25:20;14.40;99.90
45207;DHT22;30950;53.086;21.576;2023-06-14T04:27:51;14.40;99.90
45207;DHT22;30950;53.086;21.576;2023-06-14T04:30:21;14.40;99.90
45207;DHT22;30950;53.086;21.576;2023-06-14T04:32:52;14.40;99.90
45207;DHT22;30950;53.086;21.576;2023-06-14T04:35:24;14.40;99.90
45207;DHT22;30950;53.086;21.576;2023-06-14T04:37:53;14.40;99.90
45207;DHT22;30950;53.086;21.576;2023-06-14T04:40:22;14.40;99.90
45207;DHT22;30950;53.086;21.576;2023-06-14T04:42:49;14.40;99.90
45207;DHT22;30950;53.086;21.576;2023-06-14T04:45:19;14.40;99.90
45207;DHT22;30950;53.086;21.576;2023-06-14T04:47:46;14.50;99.90
45207;DHT22;30950;53.086;21.576;2023-06-14T04:50:14;14.50;99.90
45207;DHT22;30950;53.086;21.576;2023-06-14T04:52:45;14.50;99.90
45207;DHT22;30950;53.086;21.576;2023-06-14T04:55:12;14.50;99.90
45207;DHT22;30950;53.086;21.576;2023-06-14T04:57:41;14.60;99.90
45207;DHT22;30950;53.086;21.576;2023-06-14T05:00:09;14.60;99.90
45207;DHT22;30950;53.086;21.576;2023-06-14T05:02:39;14.60;99.90
45207;DHT22;30950;53.086;21.576;2023-06-14T05:05:09;14.70;99.90
45207;DHT22;30950;53.086;21.576;2023-06-14T05:07:36;14.80;99.90
45207;DHT22;30950;53.086;21.576;2023-06-14T05:10:09;14.80;99.90
45207;DHT22;30950;53.086;21.576;2023-06-14T05:12:37;14.80;99.90
45207;DHT22;30950;53.086;21.576;2023-06-14T05:15:08;14.90;99.90
45207;DHT22;30950;53.086;21.576;2023-06-14T05:17:36;15.00;99.90
45207;DHT22;30950;53.086;21.576;2023-06-14T05:20:04;15.00;99.90
45207;DHT22;30950;53.086;21.576;2023-06-14T05:22:32;15.00;99.90
45207;DHT22;30950;53.086;21.576;2023-06-14T05:25:00;15.10;99.90
45207;DHT22;30950;53.086;21.576;2023-06-14T05:27:27;15.20;99.90
45207;DHT22;30950;53.086;21.576;2023-06-14T05:29:54;15.20;99.90
45207;DHT22;30950;53.086;21.576;2023-06-14T05:32:25;15.30;99.90
45207;DHT22;30950;53.086;21.576;2023-06-14T05:34:53;15.30;99.90
45207;DHT22;30950;53.086;21.576;2023-06-14T05:37:20;15.40;99.90
45207;DHT22;30950;53.086;21.576;2023-06-14T05:39:47;15.40;99.90
45207;DHT22;30950;53.086;21.576;2023-06-14T05:42:15;15.50;99.90
45207;DHT22;30950;53.086;21.576;2023-06-14T05:44:42;15.60;99.90
45207;DHT22;30950;53.086;21.576;2023-06-14T05:47:10;15.70;99.90
45207;DHT22;30950;53.086;21.576;2023-06-14T05:49:37;15.70;99.90
45207;DHT22;30950;53.086;21.576;2023-06-14T05:52:05;15.70;99.90
45207;DHT22;30950;53.086;21.576;2023-06-14T05:54:33;15.80;99.90
45207;DHT22;30950;53.086;21.576;2023-06-14T05:57:00;15.80;99.90
45207;DHT22;30950;53.086;21.576;2023-06-14T05:59:29;15.80;99.90
45207;DHT22;30950;53.086;21.576;2023-06-14T06:01:56;15.80;99.90
45207;DHT22;30950;53.086;21.576;2023-06-14T06:04:23;15.90;99.90
45207;DHT22;30950;53.086;21.576;2023-06-14T06:06:51;15.80;99.90
45207;DHT22;30950;53.086;21.576;2023-06-14T06:09:19;15.80;99.90
45207;DHT22;30950;53.086;21.576;2023-06-14T06:11:47;15.80;99.90
45207;DHT22;30950;53.086;21.576;2023-06-14T06:14:19;15.80;99.90
45207;DHT22;30950;53.086;21.576;2023-06-14T06:16:47;15.80;99.90
45207;DHT22;30950;53.086;21.576;2023-06-14T06:19:14;15.80;99.90
45207;DHT22;30950;53.086;21.576;2023-06-14T06:21:42;15.80;99.90
45207;DHT22;30950;53.086;21.576;2023-06-14T06:24:09;15.80;99.90
45207;DHT22;30950;53.086;21.576;2023-06-14T06:26:37;15.80;99.90
45207;DHT22;30950;53.086;21.576;2023-06-14T06:29:06;15.80;99.90
45207;DHT22;30950;53.086;21.576;2023-06-14T06:31:33;15.80;99.90
45207;DHT22;30950;53.086;21.576;2023-06-14T06:34:01;15.90;99.90
45207;DHT22;30950;53.086;21.576;2023-06-14T06:36:28;16.00;99.90
45207;DHT22;30950;53.086;21.576;2023-06-14T06:38:56;16.10;99.90
45207;DHT22;30950;53.086;21.576;2023-06-14T06:41:23;16.20;99.90
45207;DHT22;30950;53.086;21.576;2023-06-14T06:43:51;16.40;99.90
45207;DHT22;30950;53.086;21.576;2023-06-14T06:46:18;16.50;99.90
45207;DHT22;30950;53.086;21.576;2023-06-14T06:48:46;16.70;99.90
45207;DHT22;30950;53.086;21.576;2023-06-14T06:51:14;16.80;99.90
45207;DHT22;30950;53.086;21.576;2023-06-14T06:53:42;17.00;99.90
45207;DHT22;30950;53.086;21.576;2023-06-14T06:56:16;17.20;99.90
45207;DHT22;30950;53.086;21.576;2023-06-14T06:58:44;17.30;99.90
45207;DHT22;30950;53.086;21.576;2023-06-14T07:01:12;17.50;99.90
45207;DHT22;30950;53.086;21.576;2023-06-14T07:03:40;17.70;99.90
45207;DHT22;30950;53.086;21.576;2023-06-14T07:06:08;17.80;99.90
45207;DHT22;30950;53.086;21.576;2023-06-14T07:08:35;18.00;99.90
45207;DHT22;30950;53.086;21.576;2023-06-14T07:11:03;18.00;99.90
45207;DHT22;30950;53.086;21.576;2023-06-14T07:13:31;18.10;99.90
45207;DHT22;30950;53.086;21.576;2023-06-14T07:15:59;18.20;99.90
45207;DHT22;30950;53.086;21.576;2023-06-14T07:18:29;18.30;99.90
45207;DHT22;30950;53.086;21.576;2023-06-14T07:20:56;18.40;99.90
45207;DHT22;30950;53.086;21.576;2023-06-14T07:23:24;18.50;99.90
45207;DHT22;30950;53.086;21.576;2023-06-14T07:25:52;18.60;99.90
45207;DHT22;30950;53.086;21.576;2023-06-14T07:28:20;18.70;99.90
45207;DHT22;30950;53.086;21.576;2023-06-14T07:30:48;18.80;99.90
45207;DHT22;30950;53.086;21.576;2023-06-14T07:33:15;18.80;99.90
45207;DHT22;30950;53.086;21.576;2023-06-14T07:35:43;18.90;99.90
45207;DHT22;30950;53.086;21.576;2023-06-14T07:38:10;18.90;99.90
45207;DHT22;30950;53.086;21.576;2023-06-14T07:40:38;19.00;99.90
45207;DHT22;30950;53.086;21.576;2023-06-14T07:43:05;19.10;99.90
45207;DHT22;30950;53.086;21.576;2023-06-14T07:45:32;19.00;99.90
45207;DHT22;30950;53.086;21.576;2023-06-14T07:48:00;19.10;99.90
45207;DHT22;30950;53.086;21.576;2023-06-14T07:50:27;19.10;99.90
45207;DHT22;30950;53.086;21.576;2023-06-14T07:52:56;19.10;99.90
45207;DHT22;30950;53.086;21.576;2023-06-14T07:55:24;19.10;99.90
45207;DHT22;30950;53.086;21.576;2023-06-14T07:57:52;19.10;99.90
45207;DHT22;30950;53.086;21.576;2023-06-14T08:00:20;19.10;99.90
45207;DHT22;30950;53.086;21.576;2023-06-14T08:02:47;19.10;99.90
45207;DHT22;30950;53.086;21.576;2023-06-14T08:05:15;19.00;99.90
45207;DHT22;30950;53.086;21.576;2023-06-14T08:07:43;19.00;99.90
45207;DHT22;30950;53.086;21.576;2023-06-14T08:10:10;18.90;99.90
45207;DHT22;30950;53.086;21.576;2023-06-14T08:12:37;18.90;99.90
45207;DHT22;30950;53.086;21.576;2023-06-14T08:15:05;18.90;99.90
45207;DHT22;30950;53.086;21.576;2023-06-14T08:17:43;18.90;99.90
45207;DHT22;30950;53.086;21.576;2023-06-14T08:20:12;18.90;99.90
45207;DHT22;30950;53.086;21.576;2023-06-14T08:22:39;19.10;99.90
45207;DHT22;30950;53.086;21.576;2023-06-14T08:25:09;19.10;99.90
45207;DHT22;30950;53.086;21.576;2023-06-14T08:27:40;19.30;99.90
45207;DHT22;30950;53.086;21.576;2023-06-14T08:30:08;19.50;99.90
45207;DHT22;30950;53.086;21.576;2023-06-14T08:32:37;19.60;99.90
45207;DHT22;30950;53.086;21.576;2023-06-14T08:35:04;19.70;99.90
45207;DHT22;30950;53.086;21.576;2023-06-14T08:37:33;19.90;99.90
45207;DHT22;30950;53.086;21.576;2023-06-14T08:40:00;20.00;99.90
45207;DHT22;30950;53.086;21.576;2023-06-14T08:42:32;20.10;99.90
45207;DHT22;30950;53.086;21.576;2023-06-14T08:45:00;20.20;99.90
45207;DHT22;30950;53.086;21.576;2023-06-14T08:47:28;20.30;99.90
45207;DHT22;30950;53.086;21.576;2023-06-14T08:49:57;20.30;99.90
45207;DHT22;30950;53.086;21.576;2023-06-14T08:52:27;20.30;99.90
45207;DHT22;30950;53.086;21.576;2023-06-14T08:54:57;20.30;99.90
45207;DHT22;30950;53.086;21.576;2023-06-14T08:57:27;20.40;99.90
45207;DHT22;30950;53.086;21.576;2023-06-14T08:59:57;20.40;99.90
45207;DHT22;30950;53.086;21.576;2023-06-14T09:02:28;20.40;99.90
45207;DHT22;30950;53.086;21.576;2023-06-14T09:04:56;20.40;99.90
45207;DHT22;30950;53.086;21.576;2023-06-14T09:07:27;20.50;98.60
45207;DHT22;30950;53.086;21.576;2023-06-14T09:10:08;20.50;98.80
45207;DHT22;30950;53.086;21.576;2023-06-14T09:12:37;20.40;97.00
45207;DHT22;30950;53.086;21.576;2023-06-14T09:15:04;20.50;97.60
45207;DHT22;30950;53.086;21.576;2023-06-14T09:17:33;20.50;97.30
45207;DHT22;30950;53.086;21.576;2023-06-14T09:20:03;20.50;97.30
45207;DHT22;30950;53.086;21.576;2023-06-14T09:22:47;20.50;97.20
45207;DHT22;30950;53.086;21.576;2023-06-14T09:25:14;20.60;96.70
45207;DHT22;30950;53.086;21.576;2023-06-14T09:28:07;20.60;95.30
45207;DHT22;30950;53.086;21.576;2023-06-14T09:30:37;20.50;94.10
45207;DHT22;30950;53.086;21.576;2023-06-14T09:33:05;20.40;94.30
45207;DHT22;30950;53.086;21.576;2023-06-14T09:35:33;20.40;93.90
45207;DHT22;30950;53.086;21.576;2023-06-14T09:38:00;20.30;94.20
45207;DHT22;30950;53.086;21.576;2023-06-14T09:40:28;20.30;95.10
45207;DHT22;30950;53.086;21.576;2023-06-14T09:42:55;20.40;95.10
45207;DHT22;30950;53.086;21.576;2023-06-14T09:45:26;20.40;94.10
45207;DHT22;30950;53.086;21.576;2023-06-14T09:47:58;20.50;95.30
45207;DHT22;30950;53.086;21.576;2023-06-14T09:50:28;20.60;95.70
45207;DHT22;30950;53.086;21.576;2023-06-14T09:53:02;20.70;95.00
45207;DHT22;30950;53.086;21.576;2023-06-14T09:55:31;20.80;93.70
45207;DHT22;30950;53.086;21.576;2023-06-14T09:58:04;20.90;92.30
45207;DHT22;30950;53.086;21.576;2023-06-14T10:00:35;20.80;91.00
45207;DHT22;30950;53.086;21.576;2023-06-14T10:03:24;20.80;90.90
45207;DHT22;30950;53.086;21.576;2023-06-14T10:05:52;20.70;91.20
45207;DHT22;30950;53.086;21.576;2023-06-14T10:08:24;20.50;91.90
45207;DHT22;30950;53.086;21.576;2023-06-14T10:10:58;20.30;92.50
45207;DHT22;30950;53.086;21.576;2023-06-14T10:13:26;20.10;93.60
45207;DHT22;30950;53.086;21.576;2023-06-14T10:16:58;19.90;95.40
45207;DHT22;30950;53.086;21.576;2023-06-14T10:19:24;19.50;96.90
45207;DHT22;30950;53.086;21.576;2023-06-14T10:22:14;19.00;99.90
45207;DHT22;30950;53.086;21.576;2023-06-14T10:24:45;18.50;99.90
45207;DHT22;30950;53.086;21.576;2023-06-14T10:27:14;18.00;99.90
45207;DHT22;30950;53.086;21.576;2023-06-14T10:32:23;17.30;99.90
45207;DHT22;30950;53.086;21.576;2023-06-14T10:34:56;17.00;99.90
45207;DHT22;30950;53.086;21.576;2023-06-14T10:37:24;16.70;99.90
45207;DHT22;30950;53.086;21.576;2023-06-14T10:39:52;16.40;99.90
45207;DHT22;30950;53.086;21.576;2023-06-14T10:42:20;16.20;99.90
45207;DHT22;30950;53.086;21.576;2023-06-14T10:47:26;15.90;99.90
45207;DHT22;30950;53.086;21.576;2023-06-14T10:50:06;15.80;99.90
45207;DHT22;30950;53.086;21.576;2023-06-14T10:52:38;15.70;99.90
45207;DHT22;30950;53.086;21.576;2023-06-14T10:55:15;15.70;99.90
45207;DHT22;30950;53.086;21.576;2023-06-14T11:00:20;15.60;99.90
45207;DHT22;30950;53.086;21.576;2023-06-14T11:08:36;15.30;99.90
45207;DHT22;30950;53.086;21.576;2023-06-14T11:11:09;15.20;99.90
45207;DHT22;30950;53.086;21.576;2023-06-14T11:13:44;15.10;99.90
45207;DHT22;30950;53.086;21.576;2023-06-14T11:16:14;15.00;99.90
45207;DHT22;30950;53.086;21.576;2023-06-14T11:18:42;15.00;99.90
45207;DHT22;30950;53.086;21.576;2023-06-14T11:21:10;15.00;99.90
45207;DHT22;30950;53.086;21.576;2023-06-14T11:23:37;15.00;99.90
45207;DHT22;30950;53.086;21.576;2023-06-14T11:26:04;15.00;99.90
45207;DHT22;30950;53.086;21.576;2023-06-14T11:28:39;14.90;99.90
45207;DHT22;30950;53.086;21.576;2023-06-14T11:31:07;14.90;99.90
45207;DHT22;30950;53.086;21.576;2023-06-14T11:33:35;14.90;99.90
45207;DHT22;30950;53.086;21.576;2023-06-14T11:36:04;14.90;99.90
45207;DHT22;30950;53.086;21.576;2023-06-14T11:38:36;15.00;99.90
45207;DHT22;30950;53.086;21.576;2023-06-14T11:41:04;15.00;99.90
45207;DHT22;30950;53.086;21.576;2023-06-14T11:43:32;15.00;99.90
45207;DHT22;30950;53.086;21.576;2023-06-14T11:46:01;15.00;99.90
45207;DHT22;30950;53.086;21.576;2023-06-14T11:48:38;15.10;99.90
45207;DHT22;30950;53.086;21.576;2023-06-14T11:51:06;15.10;99.90
45207;DHT22;30950;53.086;21.576;2023-06-14T11:53:34;15.10;99.90
45207;DHT22;30950;53.086;21.576;2023-06-14T11:56:02;15.20;99.90
45207;DHT22;30950;53.086;21.576;2023-06-14T11:58:30;15.40;99.90
45207;DHT22;30950;53.086;21.576;2023-06-14T12:00:57;15.60;99.90
45207;DHT22;30950;53.086;21.576;2023-06-14T12:03:26;15.60;99.90
45207;DHT22;30950;53.086;21.576;2023-06-14T12:06:06;15.80;99.90
45207;DHT22;30950;53.086;21.576;2023-06-14T12:08:38;15.80;99.90
45207;DHT22;30950;53.086;21.576;2023-06-14T12:11:13;15.90;99.90
45207;DHT22;30950;53.086;21.576;2023-06-14T12:13:41;16.00;99.90
45207;DHT22;30950;53.086;21.576;2023-06-14T12:16:10;16.10;99.90
45207;DHT22;30950;53.086;21.576;2023-06-14T12:18:39;16.20;99.90
45207;DHT22;30950;53.086;21.576;2023-06-14T12:21:09;16.40;99.90
45207;DHT22;30950;53.086;21.576;2023-06-14T12:23:48;16.60;99.90
45207;DHT22;30950;53.086;21.576;2023-06-14T12:26:17;16.80;99.90
45207;DHT22;30950;53.086;21.576;2023-06-14T12:28:47;17.00;99.90
45207;DHT22;30950;53.086;21.576;2023-06-14T12:31:15;17.30;99.90
45207;DHT22;30950;53.086;21.576;2023-06-14T12:33:43;17.50;99.90
45207;DHT22;30950;53.086;21.576;2023-06-14T12:36:13;17.70;99.90
45207;DHT22;30950;53.086;21.576;2023-06-14T12:38:41;17.80;99.90
45207;DHT22;30950;53.086;21.576;2023-06-14T12:41:08;17.80;99.90
45207;DHT22;30950;53.086;21.576;2023-06-14T12:43:36;17.80;99.90
45207;DHT22;30950;53.086;21.576;2023-06-14T12:46:03;17.90;99.90
45207;DHT22;30950;53.086;21.576;2023-06-14T12:48:31;17.90;99.90
45207;DHT22;30950;53.086;21.576;2023-06-14T12:50:58;18.00;99.90
45207;DHT22;30950;53.086;21.576;2023-06-14T12:53:26;17.90;99.90
45207;DHT22;30950;53.086;21.576;2023-06-14T12:55:53;18.00;99.90
45207;DHT22;30950;53.086;21.576;2023-06-14T12:58:20;18.10;99.90
45207;DHT22;30950;53.086;21.576;2023-06-14T13:00:48;18.30;99.90
45207;DHT22;30950;53.086;21.576;2023-06-14T13:03:15;18.70;99.90
45207;DHT22;30950;53.086;21.576;2023-06-14T13:05:43;19.10;99.90
45207;DHT22;30950;53.086;21.576;2023-06-14T13:08:10;19.50;99.90
45207;DHT22;30950;53.086;21.576;2023-06-14T13:10:38;19.80;99.90
45207;DHT22;30950;53.086;21.576;2023-06-14T13:13:06;20.10;99.90
45207;DHT22;30950;53.086;21.576;2023-06-14T13:15:34;20.40;99.90
45207;DHT22;30950;53.086;21.576;2023-06-14T13:18:02;20.60;99.90
45207;DHT22;30950;53.086;21.576;2023-06-14T13:20:30;20.70;99.90
45207;DHT22;30950;53.086;21.576;2023-06-14T13:22:58;20.80;99.90
45207;DHT22;30950;53.086;21.576;2023-06-14T13:25:26;20.80;99.90
45207;DHT22;30950;53.086;21.576;2023-06-14T13:27:53;20.70;99.60
45207;DHT22;30950;53.086;21.576;2023-06-14T13:30:21;20.60;98.70
45207;DHT22;30950;53.086;21.576;2023-06-14T13:32:48;20.40;98.10
45207;DHT22;30950;53.086;21.576;2023-06-14T13:35:17;20.30;97.90
45207;DHT22;30950;53.086;21.576;2023-06-14T13:37:45;20.30;98.20
45207;DHT22;30950;53.086;21.576;2023-06-14T13:40:12;20.30;98.60
45207;DHT22;30950;53.086;21.576;2023-06-14T13:42:41;20.40;99.60
45207;DHT22;30950;53.086;21.576;2023-06-14T13:45:10;20.60;97.30
45207;DHT22;30950;53.086;21.576;2023-06-14T13:47:38;21.00;97.10
45207;DHT22;30950;53.086;21.576;2023-06-14T13:50:06;21.30;95.80
45207;DHT22;30950;53.086;21.576;2023-06-14T13:52:33;21.70;94.40
45207;DHT22;30950;53.086;21.576;2023-06-14T13:55:02;22.10;93.60
45207;DHT22;30950;53.086;21.576;2023-06-14T13:57:30;22.40;92.00
45207;DHT22;30950;53.086;21.576;2023-06-14T13:59:57;22.80;91.70
45207;DHT22;30950;53.086;21.576;2023-06-14T14:02:38;22.90;90.90
45207;DHT22;30950;53.086;21.576;2023-06-14T14:05:07;23.00;87.50
45207;DHT22;30950;53.086;21.576;2023-06-14T14:07:35;23.00;84.60
45207;DHT22;30950;53.086;21.576;2023-06-14T14:10:03;22.90;83.50
45207;DHT22;30950;53.086;21.576;2023-06-14T14:12:31;22.70;83.50
45207;DHT22;30950;53.086;21.576;2023-06-14T14:14:58;22.50;83.20
45207;DHT22;30950;53.086;21.576;2023-06-14T14:17:26;22.30;83.30
45207;DHT22;30950;53.086;21.576;2023-06-14T14:19:53;22.10;80.90
45207;DHT22;30950;53.086;21.576;2023-06-14T14:22:21;21.90;81.20
45207;DHT22;30950;53.086;21.576;2023-06-14T14:24:48;21.70;82.30
45207;DHT22;30950;53.086;21.576;2023-06-14T14:27:15;21.40;83.30
45207;DHT22;30950;53.086;21.576;2023-06-14T14:29:43;21.30;83.70
45207;DHT22;30950;53.086;21.576;2023-06-14T14:32:10;21.20;84.90
45207;DHT22;30950;53.086;21.576;2023-06-14T14:34:41;20.90;84.70
45207;DHT22;30950;53.086;21.576;2023-06-14T14:37:08;20.70;85.30
45207;DHT22;30950;53.086;21.576;2023-06-14T14:39:36;20.50;86.70
45207;DHT22;30950;53.086;21.576;2023-06-14T14:42:04;20.30;88.60
45207;DHT22;30950;53.086;21.576;2023-06-14T14:44:34;20.20;89.60
45207;DHT22;30950;53.086;21.576;2023-06-14T14:47:01;20.10;90.20
45207;DHT22;30950;53.086;21.576;2023-06-14T14:49:31;20.00;90.20
45207;DHT22;30950;53.086;21.576;2023-06-14T14:51:58;19.90;90.40
45207;DHT22;30950;53.086;21.576;2023-06-14T14:54:40;19.80;90.30
45207;DHT22;30950;53.086;21.576;2023-06-14T14:57:08;19.70;90.60
45207;DHT22;30950;53.086;21.576;2023-06-14T14:59:35;19.50;91.10
45207;DHT22;30950;53.086;21.576;2023-06-14T15:02:03;19.50;92.10
45207;DHT22;30950;53.086;21.576;2023-06-14T15:04:30;19.50;92.50
45207;DHT22;30950;53.086;21.576;2023-06-14T15:06:58;19.40;93.40
45207;DHT22;30950;53.086;21.576;2023-06-14T15:09:25;19.40;93.80
45207;DHT22;30950;53.086;21.576;2023-06-14T15:11:53;19.40;94.10
45207;DHT22;30950;53.086;21.576;2023-06-14T15:14:20;19.40;94.60
45207;DHT22;30950;53.086;21.576;2023-06-14T15:16:48;19.30;94.90
45207;DHT22;30950;53.086;21.576;2023-06-14T15:19:17;19.30;95.50
45207;DHT22;30950;53.086;21.576;2023-06-14T15:21:45;19.30;96.10
45207;DHT22;30950;53.086;21.576;2023-06-14T15:24:12;19.30;96.60
45207;DHT22;30950;53.086;21.576;2023-06-14T15:26:40;19.30;97.00
45207;DHT22;30950;53.086;21.576;2023-06-14T15:29:07;19.20;97.00
45207;DHT22;30950;53.086;21.576;2023-06-14T15:31:35;19.20;97.50
45207;DHT22;30950;53.086;21.576;2023-06-14T15:34:02;19.10;97.70
45207;DHT22;30950;53.086;21.576;2023-06-14T15:36:30;19.10;97.90
45207;DHT22;30950;53.086;21.576;2023-06-14T15:38:57;19.00;98.30
45207;DHT22;30950;53.086;21.576;2023-06-14T15:41:24;19.00;98.80
45207;DHT22;30950;53.086;21.576;2023-06-14T15:43:52;19.00;99.10
45207;DHT22;30950;53.086;21.576;2023-06-14T15:46:21;18.90;99.40